Time;durP1;ratioP1;P1;durP2;ratioP2;P2;SDS_P1;SDS_P2;PMS_P1;PMS_P2;Temp;Humidity;BMP_temperature;BMP_pressure;BME280_temperature;BME280_humidity;BME280_pressure;Samples;Min_cycle;Max_cycle;Signal;HPM_P1;HPM_P2
2022/10/15 00:01:10;;;;;;;1.80;1.03;;;17.80;99.90;;;;;;5036628;28;20169;-73
2022/10/15 00:03:37;;;;;;;1.80;0.90;;;17.80;99.90;;;;;;5054323;28;20568;-73
2022/10/15 00:06:09;;;;;;;1.90;1.00;;;17.80;99.90;;;;;;5054283;28;20698;-74
2022/10/15 00:08:36;;;;;;;2.77;1.00;;;17.80;99.90;;;;;;5036517;28;20737;-74
2022/10/15 00:11:08;;;;;;;2.47;1.07;;;17.80;99.90;;;;;;5036466;28;21438;-74
2022/10/15 00:13:34;;;;;;;2.80;1.17;;;17.80;99.90;;;;;;5052916;28;20693;-74
2022/10/15 00:16:00;;;;;;;2.47;1.30;;;17.80;99.90;;;;;;5036409;28;20635;-75
2022/10/15 00:18:27;;;;;;;2.80;1.30;;;17.80;99.90;;;;;;5036572;28;20628;-74
2022/10/15 00:20:52;;;;;;;2.03;1.33;;;17.80;99.90;;;;;;5054293;28;20662;-75
2022/10/15 00:23:18;;;;;;;1.77;1.50;;;17.80;99.90;;;;;;5053832;28;20815;-74
2022/10/15 00:25:44;;;;;;;6.20;1.30;;;17.80;99.90;;;;;;5054098;28;20196;-74
2022/10/15 00:28:09;;;;;;;1.80;1.40;;;17.80;99.90;;;;;;5038709;28;20629;-74
2022/10/15 00:30:35;;;;;;;2.00;1.20;;;17.80;99.90;;;;;;5036460;28;20175;-74
2022/10/15 00:33:01;;;;;;;2.30;1.33;;;17.80;99.90;;;;;;5035773;28;20230;-74
2022/10/15 00:35:27;;;;;;;2.80;1.63;;;17.80;99.90;;;;;;5036079;28;20605;-74
2022/10/15 00:37:52;;;;;;;5.30;2.33;;;17.70;99.90;;;;;;5053961;28;20804;-74
2022/10/15 00:40:19;;;;;;;2.17;1.50;;;17.70;99.90;;;;;;5053820;28;20223;-74
2022/10/15 00:42:45;;;;;;;2.70;2.30;;;17.60;99.90;;;;;;5035518;28;20207;-74
2022/10/15 00:45:13;;;;;;;2.43;2.23;;;17.60;99.90;;;;;;5019370;28;21146;-74
2022/10/15 00:47:42;;;;;;;2.10;1.90;;;17.60;99.90;;;;;;5053613;28;20591;-74
2022/10/15 00:50:14;;;;;;;3.10;2.53;;;17.60;99.90;;;;;;5019409;28;21205;-74
2022/10/15 00:53:05;;;;;;;5.20;2.70;;;17.60;99.90;;;;;;5053151;28;20663;-75
2022/10/15 00:55:37;;;;;;;3.17;2.23;;;17.60;99.90;;;;;;5019097;28;20598;-74
2022/10/15 00:58:22;;;;;;;3.93;2.53;;;17.60;99.90;;;;;;5053533;28;20555;-74
2022/10/15 01:00:48;;;;;;;2.47;2.27;;;17.50;99.90;;;;;;5035377;28;20575;-74
2022/10/15 01:03:14;;;;;;;2.93;2.17;;;17.50;99.90;;;;;;5035161;28;20567;-73
2022/10/15 01:05:41;;;;;;;2.50;2.30;;;17.40;99.90;;;;;;5056305;28;21209;-74
2022/10/15 01:08:09;;;;;;;2.53;2.33;;;17.40;99.90;;;;;;5053188;28;20180;-74
2022/10/15 01:10:56;;;;;;;3.33;2.27;;;17.40;99.90;;;;;;5035222;28;20563;-74
2022/10/15 01:13:57;;;;;;;3.90;2.53;;;17.40;99.90;;;;;;5034784;28;20567;-74
2022/10/15 01:17:03;;;;;;;2.93;2.57;;;17.40;99.90;;;;;;4982069;28;21177;-74
2022/10/15 01:20:17;;;;;;;2.40;2.10;;;17.30;99.90;;;;;;5013024;28;20618;-74
2022/10/15 01:23:05;;;;;;;2.80;2.30;;;17.30;99.90;;;;;;5026041;28;20634;-74
2022/10/15 01:26:08;;;;;;;3.17;2.40;;;17.30;99.90;;;;;;5052648;28;20567;-74
2022/10/15 01:28:37;;;;;;;5.30;2.13;;;17.30;99.90;;;;;;5034852;28;20579;-74
2022/10/15 01:31:17;;;;;;;2.80;2.60;;;17.20;99.90;;;;;;5034902;28;21413;-73
2022/10/15 01:34:21;;;;;;;2.47;2.27;;;17.20;99.90;;;;;;5034445;28;20729;-74
2022/10/15 01:37:11;;;;;;;3.00;2.30;;;17.20;99.90;;;;;;5013032;28;20623;-74
2022/10/15 01:40:05;;;;;;;2.20;2.00;;;17.20;99.90;;;;;;5018454;28;20579;-74
2022/10/15 01:42:59;;;;;;;2.67;2.33;;;17.20;99.90;;;;;;5037075;28;21134;-74
2022/10/15 01:45:43;;;;;;;2.73;2.43;;;17.10;99.90;;;;;;5031347;28;21383;-74
2022/10/15 01:48:30;;;;;;;2.90;2.60;;;17.00;99.90;;;;;;5052503;28;20568;-74
2022/10/15 01:51:00;;;;;;;3.80;3.33;;;17.00;99.90;;;;;;5018050;28;20568;-74
2022/10/15 01:53:27;;;;;;;4.30;3.63;;;16.90;99.90;;;;;;5034191;28;20908;-74
2022/10/15 01:56:00;;;;;;;3.13;2.83;;;16.90;99.90;;;;;;5034407;28;20958;-74
2022/10/15 01:58:28;;;;;;;3.40;3.07;;;16.80;99.90;;;;;;5052277;28;20572;-74
2022/10/15 02:00:57;;;;;;;3.13;2.83;;;16.70;99.90;;;;;;5052229;28;20571;-74
2022/10/15 02:03:23;;;;;;;3.83;3.53;;;16.70;99.90;;;;;;5051813;28;20559;-74
2022/10/15 02:06:02;;;;;;;3.23;2.63;;;16.70;99.90;;;;;;5034162;28;20614;-74
2022/10/15 02:08:47;;;;;;;6.03;3.90;;;16.60;99.90;;;;;;5034243;28;20658;-74
2022/10/15 02:11:17;;;;;;;3.60;3.00;;;16.60;99.90;;;;;;5052047;28;20942;-74
2022/10/15 02:13:59;;;;;;;3.87;3.30;;;16.60;99.90;;;;;;5033707;28;21044;-74
2022/10/15 02:16:40;;;;;;;3.70;3.40;;;16.60;99.90;;;;;;5017730;28;21317;-74
2022/10/15 02:19:16;;;;;;;5.07;3.60;;;16.60;99.90;;;;;;5035908;28;21169;-74
2022/10/15 02:21:56;;;;;;;4.57;3.63;;;16.60;99.90;;;;;;5033993;28;20622;-74
2022/10/15 02:24:34;;;;;;;4.20;3.80;;;16.60;99.90;;;;;;5051797;28;20577;-74
2022/10/15 02:27:03;;;;;;;3.60;2.67;;;16.60;99.90;;;;;;5017366;28;20611;-74
2022/10/15 02:29:34;;;;;;;3.60;3.27;;;16.60;99.90;;;;;;5033933;28;20622;-74
2022/10/15 02:32:01;;;;;;;3.83;3.20;;;16.60;99.90;;;;;;5033245;28;20571;-74
2022/10/15 02:34:32;;;;;;;3.67;3.33;;;16.60;99.90;;;;;;5017322;28;20653;-74
2022/10/15 02:37:00;;;;;;;4.00;3.13;;;16.70;99.90;;;;;;5033216;28;20694;-74
2022/10/15 02:39:27;;;;;;;3.60;2.67;;;16.60;99.90;;;;;;5033827;28;20924;-74
2022/10/15 02:41:53;;;;;;;3.80;3.17;;;16.60;99.90;;;;;;5033513;28;20552;-73
2022/10/15 02:44:19;;;;;;;3.50;2.77;;;16.70;99.90;;;;;;5051320;28;20594;-74
2022/10/15 02:46:45;;;;;;;3.20;2.90;;;16.70;99.90;;;;;;5033552;28;21143;-73
2022/10/15 02:49:13;;;;;;;3.80;3.23;;;16.70;99.90;;;;;;5033604;28;20923;-74
2022/10/15 02:51:39;;;;;;;2.83;2.50;;;16.70;99.90;;;;;;5016753;28;20571;-74
2022/10/15 02:54:06;;;;;;;4.73;2.83;;;16.60;99.90;;;;;;5033218;28;20219;-74
2022/10/15 02:56:33;;;;;;;2.00;1.80;;;16.70;99.90;;;;;;5037157;28;20596;-74
2022/10/15 02:58:58;;;;;;;2.77;2.43;;;16.70;99.90;;;;;;5033623;28;20578;-74
2022/10/15 03:01:24;;;;;;;4.27;3.10;;;16.70;99.90;;;;;;5033518;28;20568;-73
2022/10/15 03:03:50;;;;;;;3.23;2.60;;;16.70;99.90;;;;;;5033345;28;20177;-74
2022/10/15 03:06:16;;;;;;;3.33;3.03;;;16.70;99.90;;;;;;5033413;28;20721;-74
2022/10/15 03:08:43;;;;;;;3.07;2.53;;;16.70;99.90;;;;;;5033428;28;20666;-73
2022/10/15 03:11:10;;;;;;;3.20;2.90;;;16.70;99.90;;;;;;5033455;28;20200;-74
2022/10/15 03:13:40;;;;;;;5.40;2.83;;;16.70;99.90;;;;;;5033177;28;20623;-73
2022/10/15 03:16:11;;;;;;;2.27;2.07;;;16.80;99.90;;;;;;5051178;28;20587;-73
2022/10/15 03:18:38;;;;;;;3.70;2.83;;;16.80;99.90;;;;;;5033625;28;20618;-74
2022/10/15 03:21:05;;;;;;;3.07;2.77;;;16.80;99.90;;;;;;5016870;28;20579;-74
2022/10/15 03:23:31;;;;;;;3.30;3.00;;;16.90;99.90;;;;;;5033180;28;20627;-74
2022/10/15 03:26:05;;;;;;;2.73;2.30;;;16.80;99.90;;;;;;5033505;28;20603;-74
2022/10/15 03:28:31;;;;;;;3.20;2.90;;;16.90;99.90;;;;;;5033397;28;20571;-74
2022/10/15 03:30:57;;;;;;;3.10;2.80;;;16.90;99.90;;;;;;5033269;28;21127;-74
2022/10/15 03:33:23;;;;;;;3.00;2.70;;;16.90;99.90;;;;;;5037766;28;20578;-73
2022/10/15 03:35:49;;;;;;;2.80;2.60;;;16.90;99.90;;;;;;5051063;28;20691;-73
2022/10/15 03:38:15;;;;;;;2.97;2.77;;;16.90;99.90;;;;;;5033048;28;20649;-73
2022/10/15 03:40:42;;;;;;;2.80;2.60;;;16.90;99.90;;;;;;5033063;28;20564;-73
2022/10/15 03:43:18;;;;;;;3.40;2.97;;;16.90;99.90;;;;;;5032984;28;20717;-74
2022/10/15 03:45:44;;;;;;;3.23;2.53;;;16.90;99.90;;;;;;5033097;28;20619;-74
2022/10/15 03:48:17;;;;;;;3.20;2.90;;;16.90;99.90;;;;;;5019916;28;20556;-74
2022/10/15 03:50:44;;;;;;;4.90;2.80;;;17.00;99.90;;;;;;5036826;28;20573;-74
2022/10/15 03:53:10;;;;;;;3.50;3.20;;;17.00;99.90;;;;;;5036491;28;20559;-74
2022/10/15 03:55:35;;;;;;;4.30;2.80;;;17.00;99.90;;;;;;5054466;28;21184;-74
2022/10/15 03:58:02;;;;;;;3.27;2.37;;;17.00;99.90;;;;;;5036671;28;20563;-74
2022/10/15 04:00:28;;;;;;;2.83;2.63;;;17.00;99.90;;;;;;5020213;28;20564;-74
2022/10/15 04:02:58;;;;;;;3.20;2.90;;;17.00;99.90;;;;;;5035974;28;20901;-75
2022/10/15 04:05:26;;;;;;;4.13;2.87;;;17.00;99.90;;;;;;5036220;28;20572;-74
2022/10/15 04:07:57;;;;;;;3.60;2.33;;;17.00;99.90;;;;;;5054368;28;20567;-74
2022/10/15 04:10:25;;;;;;;2.67;2.47;;;17.00;99.90;;;;;;5023097;28;20620;-74
2022/10/15 04:12:51;;;;;;;2.10;1.90;;;17.10;99.90;;;;;;5036234;28;20590;-74
2022/10/15 04:15:17;;;;;;;2.40;2.20;;;17.10;99.90;;;;;;5036502;28;20768;-74
2022/10/15 04:17:54;;;;;;;2.37;2.07;;;17.10;99.90;;;;;;5036713;28;20598;-74
2022/10/15 04:20:22;;;;;;;2.80;2.60;;;17.10;99.90;;;;;;5036526;28;21036;-74
2022/10/15 04:22:48;;;;;;;3.77;2.93;;;17.10;99.90;;;;;;5036233;28;20913;-74
2022/10/15 04:25:15;;;;;;;3.00;2.70;;;17.10;99.90;;;;;;5019988;28;20571;-74
2022/10/15 04:27:41;;;;;;;2.60;2.20;;;17.20;99.90;;;;;;5036339;28;20653;-74
2022/10/15 04:30:11;;;;;;;4.43;2.63;;;17.20;99.90;;;;;;5036161;28;20567;-74
2022/10/15 04:32:42;;;;;;;3.07;1.90;;;17.20;99.90;;;;;;5035945;28;20578;-74
2022/10/15 04:35:08;;;;;;;2.70;2.20;;;17.10;99.90;;;;;;5035886;28;20622;-73
2022/10/15 04:37:50;;;;;;;2.87;2.30;;;17.10;99.90;;;;;;5036052;28;21114;-73
2022/10/15 04:40:17;;;;;;;3.70;2.63;;;17.10;99.90;;;;;;5019639;28;20571;-73
2022/10/15 04:42:43;;;;;;;2.67;2.47;;;17.10;99.90;;;;;;5035540;28;20549;-73
2022/10/15 04:45:09;;;;;;;2.70;2.30;;;17.10;99.90;;;;;;5035674;28;20564;-73
2022/10/15 04:47:36;;;;;;;2.47;2.10;;;17.10;99.90;;;;;;5038581;28;20610;-74
2022/10/15 04:50:07;;;;;;;2.83;1.83;;;17.00;99.90;;;;;;5053695;28;20564;-74
2022/10/15 04:52:51;;;;;;;3.73;2.80;;;17.00;99.90;;;;;;5053246;28;20572;-73
2022/10/15 04:55:17;;;;;;;2.83;2.57;;;16.90;99.90;;;;;;5035730;28;20629;-73
2022/10/15 04:57:43;;;;;;;6.27;2.90;;;16.90;99.90;;;;;;5035651;28;20639;-73
2022/10/15 05:00:10;;;;;;;3.33;3.03;;;16.80;99.90;;;;;;5018522;28;20260;-74
2022/10/15 05:02:42;;;;;;;2.83;2.53;;;16.80;99.90;;;;;;5035151;28;20575;-73
2022/10/15 05:05:34;;;;;;;3.50;3.17;;;16.80;99.90;;;;;;5050065;28;20592;-74
2022/10/15 05:08:03;;;;;;;3.07;2.70;;;16.80;99.90;;;;;;5019397;28;20610;-74
2022/10/15 05:10:33;;;;;;;5.03;2.70;;;16.80;99.90;;;;;;5035646;28;20633;-74
2022/10/15 05:13:03;;;;;;;2.40;2.17;;;16.80;99.90;;;;;;5035037;28;20564;-74
2022/10/15 05:15:32;;;;;;;3.27;2.70;;;16.80;99.90;;;;;;5035250;28;20624;-74
2022/10/15 05:17:58;;;;;;;3.77;3.20;;;16.80;99.90;;;;;;5018598;28;21208;-74
2022/10/15 05:20:31;;;;;;;3.50;3.20;;;16.90;99.90;;;;;;5035410;28;20571;-74
2022/10/15 05:22:57;;;;;;;4.07;3.77;;;16.90;99.90;;;;;;5035046;28;20555;-73
2022/10/15 05:25:28;;;;;;;4.00;3.50;;;16.90;99.90;;;;;;5039788;28;20568;-74
2022/10/15 05:27:54;;;;;;;5.43;4.10;;;16.90;99.90;;;;;;5035655;28;20582;-74
2022/10/15 05:30:20;;;;;;;4.10;3.50;;;16.90;99.90;;;;;;5052745;28;20165;-73
2022/10/15 05:32:54;;;;;;;4.00;3.60;;;16.80;99.90;;;;;;5034642;28;20583;-74
2022/10/15 05:35:22;;;;;;;5.00;3.00;;;16.80;99.90;;;;;;5002167;28;20639;-74
2022/10/15 05:37:53;;;;;;;4.27;3.70;;;16.90;99.90;;;;;;5035103;28;20582;-74
2022/10/15 05:40:19;;;;;;;3.00;2.70;;;16.90;99.90;;;;;;5018415;28;20748;-74
2022/10/15 05:42:56;;;;;;;3.97;2.70;;;16.90;99.90;;;;;;5018046;28;20566;-74
2022/10/15 05:45:22;;;;;;;2.77;2.50;;;16.90;99.90;;;;;;5034883;28;20572;-73
2022/10/15 05:47:48;;;;;;;5.67;2.87;;;16.90;99.90;;;;;;5034702;28;20615;-74
2022/10/15 05:50:16;;;;;;;3.50;3.20;;;16.90;99.90;;;;;;5034856;28;20227;-73
2022/10/15 05:52:45;;;;;;;3.40;3.10;;;16.90;99.90;;;;;;5018559;28;20618;-74
2022/10/15 05:55:15;;;;;;;4.20;3.60;;;16.90;99.90;;;;;;5034761;28;20622;-74
2022/10/15 05:57:41;;;;;;;3.70;3.40;;;16.90;99.90;;;;;;5034374;28;20595;-74
2022/10/15 06:00:08;;;;;;;3.90;3.50;;;16.90;99.90;;;;;;5034468;28;20187;-73
2022/10/15 06:02:40;;;;;;;4.60;4.20;;;16.80;99.90;;;;;;5038335;28;20603;-73
2022/10/15 06:05:06;;;;;;;4.37;3.97;;;16.80;99.90;;;;;;5052400;28;20609;-74
2022/10/15 06:07:31;;;;;;;4.30;3.90;;;16.80;99.90;;;;;;5034050;28;20258;-73
2022/10/15 06:10:03;;;;;;;5.20;3.90;;;16.80;99.90;;;;;;5035088;28;20568;-73
2022/10/15 06:12:32;;;;;;;6.50;3.20;;;16.70;99.90;;;;;;5033106;28;20617;-73
2022/10/15 06:14:58;;;;;;;4.17;3.77;;;16.70;99.90;;;;;;5034096;28;20626;-73
2022/10/15 06:17:24;;;;;;;4.20;3.43;;;16.60;99.90;;;;;;5051915;28;20619;-74
2022/10/15 06:19:50;;;;;;;3.67;3.37;;;16.60;99.90;;;;;;5051835;28;20205;-73
2022/10/15 06:22:15;;;;;;;3.00;2.57;;;16.50;99.90;;;;;;5051738;28;20196;-74
2022/10/15 06:24:41;;;;;;;2.93;2.17;;;16.50;99.90;;;;;;5034096;28;20205;-73
2022/10/15 06:27:08;;;;;;;3.50;2.40;;;16.40;99.90;;;;;;5051724;28;20204;-73
2022/10/15 06:29:34;;;;;;;2.63;2.07;;;16.40;99.90;;;;;;5051858;28;20645;-73
2022/10/15 06:32:00;;;;;;;2.40;2.10;;;16.30;99.90;;;;;;5033839;28;20607;-74
2022/10/15 06:34:26;;;;;;;4.37;3.10;;;16.40;99.90;;;;;;5050693;28;20639;-73
2022/10/15 06:36:52;;;;;;;2.50;1.50;;;16.30;99.90;;;;;;5052198;28;20602;-74
2022/10/15 06:39:18;;;;;;;2.53;2.33;;;16.30;99.90;;;;;;5053261;28;20719;-75
2022/10/15 06:41:44;;;;;;;2.50;1.83;;;16.30;99.90;;;;;;5039771;28;20290;-74
2022/10/15 06:44:10;;;;;;;2.23;1.73;;;16.30;99.90;;;;;;5045175;28;20216;-75
2022/10/15 06:46:36;;;;;;;3.33;2.17;;;16.30;99.90;;;;;;5052863;28;20223;-74
2022/10/15 06:49:02;;;;;;;2.40;1.93;;;16.40;99.90;;;;;;5052100;28;20553;-76
2022/10/15 06:51:28;;;;;;;2.30;1.90;;;16.40;99.90;;;;;;5029782;28;20635;-75
2022/10/15 06:53:54;;;;;;;3.03;2.23;;;16.50;99.90;;;;;;5035518;28;20682;-75
2022/10/15 06:56:20;;;;;;;3.03;1.80;;;16.50;99.90;;;;;;5035158;28;20690;-75
2022/10/15 06:58:45;;;;;;;3.20;1.83;;;16.60;99.90;;;;;;5053431;28;20173;-75
2022/10/15 07:01:11;;;;;;;1.90;1.50;;;16.60;99.90;;;;;;5054068;28;20663;-74
2022/10/15 07:03:40;;;;;;;2.30;1.83;;;16.70;99.90;;;;;;5052330;28;20169;-75
2022/10/15 07:06:07;;;;;;;2.43;2.00;;;16.70;99.90;;;;;;5052511;28;20611;-74
2022/10/15 07:08:35;;;;;;;3.07;1.67;;;16.80;99.90;;;;;;5034763;28;20584;-74
2022/10/15 07:11:07;;;;;;;1.87;1.17;;;16.80;99.90;;;;;;5051321;28;20575;-75
2022/10/15 07:13:33;;;;;;;1.93;1.43;;;16.90;99.90;;;;;;5050681;28;20576;-74
2022/10/15 07:16:07;;;;;;;2.30;1.50;;;17.00;99.90;;;;;;5054336;28;20611;-75
2022/10/15 07:18:33;;;;;;;2.07;1.47;;;17.00;99.90;;;;;;5051835;28;20602;-75
2022/10/15 07:21:00;;;;;;;1.70;1.13;;;17.10;99.90;;;;;;5033284;28;20631;-74
2022/10/15 07:23:26;;;;;;;2.87;1.47;;;17.10;99.90;;;;;;5035419;28;20662;-74
2022/10/15 07:25:52;;;;;;;1.50;0.90;;;17.10;99.90;;;;;;5054796;28;20765;-75
2022/10/15 07:28:17;;;;;;;1.50;0.90;;;17.10;99.90;;;;;;5055032;28;20215;-75
2022/10/15 07:30:43;;;;;;;1.53;1.00;;;17.20;99.90;;;;;;5036932;28;20177;-75
2022/10/15 07:33:09;;;;;;;2.10;1.07;;;17.20;99.90;;;;;;5054712;28;20161;-74
2022/10/15 07:35:36;;;;;;;1.87;1.03;;;17.20;99.90;;;;;;5036915;28;20208;-75
2022/10/15 07:38:03;;;;;;;3.10;1.00;;;17.20;99.90;;;;;;5020815;28;20578;-74
2022/10/15 07:40:29;;;;;;;1.40;0.80;;;17.30;99.90;;;;;;5054664;28;20645;-74
2022/10/15 07:42:56;;;;;;;1.30;0.70;;;17.40;99.90;;;;;;5054964;28;20575;-74
2022/10/15 07:45:27;;;;;;;1.70;0.90;;;17.40;99.90;;;;;;5054727;28;20682;-76
2022/10/15 07:47:53;;;;;;;2.00;0.97;;;17.60;99.90;;;;;;5054656;28;20575;-75
2022/10/15 07:50:19;;;;;;;2.47;0.90;;;17.80;99.90;;;;;;5037265;28;20579;-76
2022/10/15 07:52:46;;;;;;;2.23;0.80;;;18.00;99.90;;;;;;5037479;28;20659;-76
2022/10/15 07:55:13;;;;;;;1.60;0.90;;;18.00;99.90;;;;;;5063127;28;20713;-77
2022/10/15 07:57:38;;;;;;;1.47;0.80;;;18.10;99.90;;;;;;5045754;28;20602;-76
2022/10/15 08:00:05;;;;;;;4.13;1.00;;;18.30;99.90;;;;;;5065816;28;20603;-76
2022/10/15 08:02:38;;;;;;;1.30;0.70;;;18.30;99.90;;;;;;5061936;28;20161;-76
2022/10/15 08:05:04;;;;;;;3.20;1.00;;;18.40;99.90;;;;;;5040763;28;20579;-75
2022/10/15 08:07:30;;;;;;;1.60;1.00;;;18.40;99.90;;;;;;5037311;28;20692;-77
2022/10/15 08:09:56;;;;;;;1.70;1.03;;;18.50;99.90;;;;;;5054493;28;20579;-74
2022/10/15 08:12:25;;;;;;;1.63;0.90;;;18.60;99.90;;;;;;5019991;28;20606;-74
2022/10/15 08:14:51;;;;;;;1.90;0.90;;;18.60;99.90;;;;;;5051557;28;20634;-74
2022/10/15 08:17:17;;;;;;;1.97;1.23;;;18.50;99.90;;;;;;5052993;28;20665;-74
2022/10/15 08:19:42;;;;;;;1.47;0.90;;;18.50;99.90;;;;;;5052528;28;20251;-74
2022/10/15 08:22:08;;;;;;;2.43;1.47;;;18.50;99.90;;;;;;5034605;28;20205;-74
2022/10/15 08:24:34;;;;;;;1.90;1.27;;;18.50;99.90;;;;;;5035164;28;20183;-75
2022/10/15 08:26:59;;;;;;;1.70;1.10;;;18.60;99.90;;;;;;5052606;28;20236;-72
2022/10/15 08:29:25;;;;;;;1.90;1.00;;;18.60;99.90;;;;;;5038649;28;20165;-73
2022/10/15 08:31:51;;;;;;;3.23;0.80;;;18.80;99.90;;;;;;5035588;28;20855;-74
2022/10/15 08:34:22;;;;;;;1.60;1.13;;;19.00;99.90;;;;;;5053243;28;20544;-74
2022/10/15 08:36:48;;;;;;;1.77;0.90;;;19.10;99.90;;;;;;5053462;28;20805;-74
2022/10/15 08:39:14;;;;;;;2.80;0.80;;;19.10;99.90;;;;;;5052310;28;20659;-75
2022/10/15 08:41:52;;;;;;;1.60;1.03;;;19.10;99.90;;;;;;5046264;28;20178;-75
2022/10/15 08:44:25;;;;;;;1.77;0.90;;;19.10;99.90;;;;;;5038940;28;20201;-74
2022/10/15 08:47:25;;;;;;;2.00;0.87;;;19.10;99.90;;;;;;5053605;28;20606;-75
2022/10/15 08:49:53;;;;;;;1.70;0.80;;;19.20;99.90;;;;;;5040456;28;20584;-75
2022/10/15 08:52:44;;;;;;;2.00;0.80;;;19.30;99.90;;;;;;5031885;28;20564;-75
2022/10/15 08:55:16;;;;;;;5.83;0.90;;;19.30;99.90;;;;;;5048915;28;20624;-75
2022/10/15 08:58:29;;;;;;;1.60;0.90;;;19.40;99.90;;;;;;5032841;28;20600;-74
2022/10/15 09:01:05;;;;;;;1.43;0.70;;;19.50;99.90;;;;;;5010173;28;20597;-75
2022/10/15 09:03:46;;;;;;;2.30;0.90;;;19.60;99.90;;;;;;5046333;28;20614;-74
2022/10/15 09:06:36;;;;;;;1.60;0.87;;;19.70;99.90;;;;;;5038145;28;20623;-74
2022/10/15 09:09:47;;;;;;;1.60;1.10;;;19.60;99.90;;;;;;5040101;28;20580;-75
2022/10/15 09:12:31;;;;;;;2.03;0.90;;;19.70;99.90;;;;;;4971748;28;20680;-74
2022/10/15 09:14:58;;;;;;;1.60;0.80;;;19.70;99.90;;;;;;5051161;28;20749;-74
2022/10/15 09:17:31;;;;;;;1.97;0.80;;;19.80;99.90;;;;;;5035492;28;20615;-74
2022/10/15 09:19:59;;;;;;;3.97;1.00;;;19.80;99.90;;;;;;5034865;28;21170;-74
2022/10/15 09:22:28;;;;;;;2.70;1.10;;;19.90;99.90;;;;;;5046456;28;20588;-75
2022/10/15 09:24:54;;;;;;;1.60;1.40;;;19.90;99.90;;;;;;5046683;28;20596;-74
2022/10/15 09:27:20;;;;;;;1.63;1.10;;;19.90;99.90;;;;;;5047317;28;20627;-74
2022/10/15 09:30:19;;;;;;;1.30;0.70;;;20.00;99.90;;;;;;5052488;28;20923;-74
2022/10/15 09:33:01;;;;;;;1.47;0.70;;;20.00;99.90;;;;;;4986917;28;20591;-74
2022/10/15 09:35:36;;;;;;;1.87;1.00;;;20.00;99.90;;;;;;5043432;28;20735;-74
2022/10/15 09:38:27;;;;;;;2.10;1.00;;;19.90;99.90;;;;;;5058988;22;20659;-76
2022/10/15 09:41:05;;;;;;;1.50;0.80;;;19.80;99.90;;;;;;5030625;28;20921;-76
2022/10/15 09:43:35;;;;;;;1.57;0.93;;;20.00;99.90;;;;;;5034489;28;20612;-76
2022/10/15 09:46:01;;;;;;;3.80;1.50;;;20.20;99.90;;;;;;5032439;28;20583;-76
2022/10/15 09:48:42;;;;;;;2.20;0.83;;;20.30;99.90;;;;;;5031580;28;20611;-76
2022/10/15 09:51:32;;;;;;;1.50;0.80;;;20.50;99.90;;;;;;5015687;28;20601;-76
2022/10/15 09:54:04;;;;;;;1.40;0.80;;;20.70;99.90;;;;;;5016515;28;20987;-76
2022/10/15 09:56:38;;;;;;;1.30;0.60;;;20.80;99.90;;;;;;5032269;28;21119;-77
2022/10/15 09:59:04;;;;;;;1.60;0.70;;;20.90;99.90;;;;;;5020117;28;20654;-77
2022/10/15 10:01:31;;;;;;;2.20;0.70;;;21.00;99.90;;;;;;5019033;28;21276;-77
2022/10/15 10:04:17;;;;;;;1.57;0.70;;;21.00;99.90;;;;;;5030171;28;20632;-76
2022/10/15 10:06:53;;;;;;;2.00;0.70;;;20.90;99.90;;;;;;5031936;28;20574;-78
2022/10/15 10:09:40;;;;;;;2.47;1.00;;;20.80;99.90;;;;;;5031813;28;21000;-77
2022/10/15 10:12:16;;;;;;;2.03;1.03;;;20.70;99.90;;;;;;4986708;28;21049;-76
2022/10/15 10:14:53;;;;;;;4.33;1.10;;;20.50;99.90;;;;;;5030837;28;20620;-75
2022/10/15 10:17:21;;;;;;;1.80;0.60;;;20.40;99.90;;;;;;5023513;28;20635;-76
2022/10/15 10:20:08;;;;;;;1.47;0.70;;;20.30;99.90;;;;;;5026789;28;21432;-76
2022/10/15 10:23:03;;;;;;;1.37;0.60;;;20.30;99.90;;;;;;5028965;28;20645;-76
2022/10/15 10:25:37;;;;;;;1.20;0.50;;;20.30;99.90;;;;;;5027094;28;21151;-76
2022/10/15 10:28:12;;;;;;;1.93;0.60;;;20.40;99.90;;;;;;5029108;28;20636;-76
2022/10/15 10:30:56;;;;;;;2.13;0.60;;;20.30;99.90;;;;;;5032115;28;20993;-76
2022/10/15 10:33:42;;;;;;;1.90;0.70;;;20.30;99.90;;;;;;5030051;28;20580;-77
2022/10/15 10:36:36;;;;;;;1.37;0.60;;;20.20;99.90;;;;;;5030723;28;20580;-77
2022/10/15 10:39:14;;;;;;;1.30;0.60;;;20.30;99.90;;;;;;5029245;28;20592;-77
2022/10/15 10:41:54;;;;;;;1.30;0.60;;;20.30;99.90;;;;;;5029927;28;20588;-76
2022/10/15 10:44:21;;;;;;;1.30;0.60;;;20.30;99.90;;;;;;5028913;28;20634;-77
2022/10/15 10:47:06;;;;;;;1.30;0.60;;;20.30;99.90;;;;;;5031219;28;20687;-76
2022/10/15 10:49:34;;;;;;;1.73;0.60;;;20.30;99.90;;;;;;4995666;28;20647;-77
2022/10/15 10:52:01;;;;;;;1.20;0.60;;;20.40;99.90;;;;;;5006519;28;21163;-77
2022/10/15 10:54:29;;;;;;;1.30;0.50;;;20.50;99.90;;;;;;5030238;28;20663;-77
2022/10/15 10:56:57;;;;;;;1.90;0.60;;;20.50;99.90;;;;;;5030512;28;20259;-76
2022/10/15 10:59:42;;;;;;;1.60;0.60;;;20.50;99.90;;;;;;5029987;28;20591;-77
2022/10/15 11:02:11;;;;;;;3.10;0.70;;;20.60;99.90;;;;;;5020269;28;20937;-76
2022/10/15 11:04:38;;;;;;;1.90;0.50;;;20.70;99.90;;;;;;5031277;28;20564;-76
2022/10/15 11:07:07;;;;;;;3.27;0.60;;;20.70;99.90;;;;;;5022094;28;20647;-76
2022/10/15 11:09:54;;;;;;;1.10;0.47;;;20.80;99.90;;;;;;5018985;28;20588;-76
2022/10/15 11:12:48;;;;;;;1.20;0.50;;;20.90;99.90;;;;;;5011749;28;21193;-76
2022/10/15 11:15:33;;;;;;;3.47;0.47;;;21.00;99.90;;;;;;5029844;28;20624;-76
2022/10/15 11:18:05;;;;;;;1.40;0.60;;;21.10;99.90;;;;;;5029732;28;20596;-76
2022/10/15 11:21:05;;;;;;;1.20;0.50;;;21.20;99.90;;;;;;5029947;28;20565;-76
2022/10/15 11:23:52;;;;;;;1.70;0.40;;;21.30;99.90;;;;;;5029597;28;20579;-76
2022/10/15 11:26:21;;;;;;;1.30;0.60;;;21.40;99.90;;;;;;5031919;28;21140;-76
2022/10/15 11:29:28;;;;;;;2.03;0.40;;;21.50;99.90;;;;;;5014383;28;20718;-76
2022/10/15 11:31:53;;;;;;;1.27;0.40;;;21.60;99.90;;;;;;5027068;28;20627;-76
2022/10/15 11:34:40;;;;;;;2.07;0.50;;;21.80;99.90;;;;;;5032438;28;20620;-76
2022/10/15 11:37:47;;;;;;;1.37;0.40;;;22.00;99.90;;;;;;5032895;28;20608;-76
2022/10/15 11:40:20;;;;;;;1.20;0.40;;;22.10;99.90;;;;;;5013692;28;20584;-76
2022/10/15 11:42:57;;;;;;;1.40;0.43;;;22.20;99.90;;;;;;5013550;28;20628;-76
2022/10/15 11:45:29;;;;;;;1.30;0.30;;;22.30;99.90;;;;;;5014305;28;20578;-76
2022/10/15 11:47:59;;;;;;;1.20;0.40;;;22.40;99.90;;;;;;5031110;28;20615;-76
2022/10/15 11:50:25;;;;;;;1.10;0.40;;;22.50;99.90;;;;;;5031141;28;20980;-76
2022/10/15 11:53:10;;;;;;;1.83;0.30;;;22.50;99.90;;;;;;5030597;28;20615;-76
2022/10/15 11:56:05;;;;;;;1.10;0.40;;;22.60;99.90;;;;;;4981189;28;20673;-76
2022/10/15 11:58:30;;;;;;;1.20;0.40;;;22.70;99.90;;;;;;5030793;28;20604;-76
2022/10/15 12:01:02;;;;;;;1.13;0.40;;;22.80;99.90;;;;;;5030988;28;20583;-76
2022/10/15 12:03:30;;;;;;;1.10;0.33;;;22.80;99.90;;;;;;5030592;28;20170;-76
2022/10/15 12:06:17;;;;;;;1.30;0.30;;;22.90;99.90;;;;;;5031237;28;21151;-76
2022/10/15 12:08:46;;;;;;;3.20;0.40;;;22.90;99.90;;;;;;5030736;28;20620;-76
2022/10/15 12:11:23;;;;;;;1.50;0.40;;;22.90;99.90;;;;;;5016584;28;20691;-76
2022/10/15 12:14:12;;;;;;;1.30;0.40;;;22.90;99.90;;;;;;5016421;28;20624;-77
2022/10/15 12:16:58;;;;;;;1.10;0.40;;;22.90;99.90;;;;;;5034584;28;20671;-76
2022/10/15 12:19:48;;;;;;;1.20;0.43;;;23.10;99.90;;;;;;5016787;28;20635;-76
2022/10/15 12:22:34;;;;;;;1.20;0.50;;;23.10;99.90;;;;;;5000505;28;20596;-75
2022/10/15 12:25:00;;;;;;;1.60;0.33;;;23.10;99.90;;;;;;5034120;28;20572;-76
2022/10/15 12:27:29;;;;;;;1.10;0.40;;;23.30;99.90;;;;;;5034155;28;20612;-75
2022/10/15 12:30:06;;;;;;;1.10;0.40;;;23.30;99.90;;;;;;5034260;28;20572;-76
2022/10/15 12:32:45;;;;;;;1.20;0.40;;;23.40;99.90;;;;;;5016124;28;20686;-76
2022/10/15 12:35:13;;;;;;;4.03;0.63;;;23.50;99.90;;;;;;5034162;28;20647;-76
2022/10/15 12:37:41;;;;;;;1.20;0.50;;;23.60;99.90;;;;;;5042222;28;20635;-76
2022/10/15 12:40:25;;;;;;;1.17;0.40;;;23.70;99.90;;;;;;5022179;28;21074;-77
2022/10/15 12:43:15;;;;;;;1.20;0.40;;;23.70;99.90;;;;;;5030119;28;20592;-76
2022/10/15 12:46:01;;;;;;;1.63;0.50;;;23.70;99.90;;;;;;5018901;28;20631;-76
2022/10/15 12:48:29;;;;;;;1.97;0.40;;;23.70;99.90;;;;;;5030730;28;20627;-78
2022/10/15 12:51:15;;;;;;;1.80;0.37;;;23.70;99.90;;;;;;5033626;28;20603;-77
2022/10/15 12:53:45;;;;;;;1.23;0.40;;;23.60;99.90;;;;;;5036306;28;20649;-77
2022/10/15 12:56:11;;;;;;;1.20;0.40;;;23.70;99.90;;;;;;5035642;28;20579;-77
2022/10/15 12:58:51;;;;;;;1.30;0.50;;;23.70;99.90;;;;;;5040801;28;20599;-77
2022/10/15 13:01:20;;;;;;;1.20;0.40;;;23.80;99.90;;;;;;5053463;28;20582;-77
2022/10/15 13:03:51;;;;;;;1.30;0.60;;;23.90;99.90;;;;;;5036549;28;20969;-77
2022/10/15 13:06:20;;;;;;;1.40;0.50;;;24.00;99.90;;;;;;5031599;28;20671;-77
2022/10/15 13:08:53;;;;;;;1.30;0.40;;;24.10;99.90;;;;;;5033160;28;20623;-77
2022/10/15 13:11:33;;;;;;;1.00;0.30;;;24.10;99.90;;;;;;5015572;28;20572;-77
2022/10/15 13:14:07;;;;;;;1.10;0.30;;;24.20;99.90;;;;;;5032843;28;20608;-77
2022/10/15 13:16:34;;;;;;;1.70;0.40;;;24.30;99.90;;;;;;5030871;28;20687;-77